sensor_id;sensor_type;location;lat;lon;timestamp;P1;durP1;ratioP1;P2;durP2;ratioP2
47896;SDS011;39629;51.400;5.494;2023-06-22T00:08:28;3.65;;;1.75;;
47896;SDS011;39629;51.400;5.494;2023-06-22T00:13:31;4.40;;;1.83;;
47896;SDS011;39629;51.400;5.494;2023-06-22T00:18:33;2.47;;;1.65;;
47896;SDS011;39629;51.400;5.494;2023-06-22T00:23:34;2.78;;;1.35;;
47896;SDS011;39629;51.400;5.494;2023-06-22T00:28:38;2.70;;;1.40;;
47896;SDS011;39629;51.400;5.494;2023-06-22T00:33:39;2.45;;;1.40;;
47896;SDS011;39629;51.400;5.494;2023-06-22T00:38:41;2.80;;;1.60;;
47896;SDS011;39629;51.400;5.494;2023-06-22T00:43:45;4.55;;;2.45;;
47896;SDS011;39629;51.400;5.494;2023-06-22T00:48:46;4.43;;;2.78;;
47896;SDS011;39629;51.400;5.494;2023-06-22T00:53:48;4.88;;;2.70;;
47896;SDS011;39629;51.400;5.494;2023-06-22T00:58:53;4.83;;;3.33;;
47896;SDS011;39629;51.400;5.494;2023-06-22T01:03:54;6.65;;;3.00;;
47896;SDS011;39629;51.400;5.494;2023-06-22T01:09:00;6.53;;;2.47;;
47896;SDS011;39629;51.400;5.494;2023-06-22T01:14:10;5.93;;;2.90;;
47896;SDS011;39629;51.400;5.494;2023-06-22T01:19:20;6.97;;;3.63;;
47896;SDS011;39629;51.400;5.494;2023-06-22T01:24:40;5.93;;;3.22;;
47896;SDS011;39629;51.400;5.494;2023-06-22T01:29:50;6.70;;;3.47;;
47896;SDS011;39629;51.400;5.494;2023-06-22T01:34:54;6.15;;;3.15;;
47896;SDS011;39629;51.400;5.494;2023-06-22T01:39:56;5.05;;;3.50;;
47896;SDS011;39629;51.400;5.494;2023-06-22T01:45:00;7.32;;;3.88;;
47896;SDS011;39629;51.400;5.494;2023-06-22T01:50:04;8.40;;;3.90;;
47896;SDS011;39629;51.400;5.494;2023-06-22T01:55:07;5.25;;;3.03;;
47896;SDS011;39629;51.400;5.494;2023-06-22T02:00:11;7.05;;;3.50;;
47896;SDS011;39629;51.400;5.494;2023-06-22T02:05:18;6.40;;;3.90;;
47896;SDS011;39629;51.400;5.494;2023-06-22T02:10:21;6.97;;;3.97;;
47896;SDS011;39629;51.400;5.494;2023-06-22T02:15:27;6.13;;;3.72;;
47896;SDS011;39629;51.400;5.494;2023-06-22T02:20:29;9.43;;;4.03;;
47896;SDS011;39629;51.400;5.494;2023-06-22T02:25:31;8.43;;;5.00;;
47896;SDS011;39629;51.400;5.494;2023-06-22T02:30:34;7.80;;;4.30;;
47896;SDS011;39629;51.400;5.494;2023-06-22T02:35:35;8.50;;;4.65;;
47896;SDS011;39629;51.400;5.494;2023-06-22T02:40:37;8.15;;;4.50;;
47896;SDS011;39629;51.400;5.494;2023-06-22T02:45:40;9.05;;;5.10;;
47896;SDS011;39629;51.400;5.494;2023-06-22T02:50:42;6.22;;;3.97;;
47896;SDS011;39629;51.400;5.494;2023-06-22T02:55:44;10.15;;;5.63;;
47896;SDS011;39629;51.400;5.494;2023-06-22T03:00:47;9.35;;;4.95;;
47896;SDS011;39629;51.400;5.494;2023-06-22T03:05:48;7.68;;;4.78;;
47896;SDS011;39629;51.400;5.494;2023-06-22T03:10:53;9.18;;;4.93;;
47896;SDS011;39629;51.400;5.494;2023-06-22T03:15:56;9.52;;;5.68;;
47896;SDS011;39629;51.400;5.494;2023-06-22T03:20:57;10.75;;;5.40;;
47896;SDS011;39629;51.400;5.494;2023-06-22T03:25:59;10.10;;;5.75;;
47896;SDS011;39629;51.400;5.494;2023-06-22T03:31:02;9.07;;;5.38;;
47896;SDS011;39629;51.400;5.494;2023-06-22T03:36:06;10.23;;;5.93;;
47896;SDS011;39629;51.400;5.494;2023-06-22T03:41:08;12.35;;;5.72;;
47896;SDS011;39629;51.400;5.494;2023-06-22T03:46:11;12.55;;;6.13;;
47896;SDS011;39629;51.400;5.494;2023-06-22T03:51:12;9.55;;;5.88;;
47896;SDS011;39629;51.400;5.494;2023-06-22T03:56:14;9.50;;;5.43;;
47896;SDS011;39629;51.400;5.494;2023-06-22T04:01:21;11.32;;;6.07;;
47896;SDS011;39629;51.400;5.494;2023-06-22T04:06:23;8.48;;;5.43;;
47896;SDS011;39629;51.400;5.494;2023-06-22T04:11:24;11.00;;;6.15;;
47896;SDS011;39629;51.400;5.494;2023-06-22T04:16:27;11.20;;;5.65;;
47896;SDS011;39629;51.400;5.494;2023-06-22T04:21:29;11.45;;;5.90;;
47896;SDS011;39629;51.400;5.494;2023-06-22T04:26:30;12.02;;;6.20;;
47896;SDS011;39629;51.400;5.494;2023-06-22T04:31:38;9.40;;;6.30;;
47896;SDS011;39629;51.400;5.494;2023-06-22T04:36:40;11.65;;;6.10;;
47896;SDS011;39629;51.400;5.494;2023-06-22T04:41:42;11.52;;;6.38;;
47896;SDS011;39629;51.400;5.494;2023-06-22T04:46:44;9.80;;;6.15;;
47896;SDS011;39629;51.400;5.494;2023-06-22T04:51:46;10.20;;;5.70;;
47896;SDS011;39629;51.400;5.494;2023-06-22T04:56:48;11.55;;;5.20;;
47896;SDS011;39629;51.400;5.494;2023-06-22T05:01:58;9.85;;;6.10;;
47896;SDS011;39629;51.400;5.494;2023-06-22T05:07:00;12.52;;;7.57;;
47896;SDS011;39629;51.400;5.494;2023-06-22T05:12:03;14.45;;;6.93;;
47896;SDS011;39629;51.400;5.494;2023-06-22T05:17:06;16.00;;;7.85;;
47896;SDS011;39629;51.400;5.494;2023-06-22T05:22:14;16.98;;;8.82;;
47896;SDS011;39629;51.400;5.494;2023-06-22T05:27:15;15.98;;;9.38;;
47896;SDS011;39629;51.400;5.494;2023-06-22T05:32:18;13.00;;;7.85;;
47896;SDS011;39629;51.400;5.494;2023-06-22T05:37:20;15.47;;;9.63;;
47896;SDS011;39629;51.400;5.494;2023-06-22T05:42:22;19.92;;;10.38;;
47896;SDS011;39629;51.400;5.494;2023-06-22T05:47:26;16.57;;;10.30;;
47896;SDS011;39629;51.400;5.494;2023-06-22T05:52:28;19.02;;;11.25;;
47896;SDS011;39629;51.400;5.494;2023-06-22T05:57:29;20.10;;;10.65;;
47896;SDS011;39629;51.400;5.494;2023-06-22T06:02:32;14.63;;;9.18;;
47896;SDS011;39629;51.400;5.494;2023-06-22T06:07:34;18.65;;;10.43;;
47896;SDS011;39629;51.400;5.494;2023-06-22T06:12:35;16.35;;;10.50;;
47896;SDS011;39629;51.400;5.494;2023-06-22T06:17:45;18.38;;;9.60;;
47896;SDS011;39629;51.400;5.494;2023-06-22T06:22:48;17.13;;;10.30;;
47896;SDS011;39629;51.400;5.494;2023-06-22T06:27:50;20.58;;;10.27;;
47896;SDS011;39629;51.400;5.494;2023-06-22T06:32:55;14.43;;;8.80;;
47896;SDS011;39629;51.400;5.494;2023-06-22T06:37:57;18.07;;;9.83;;
47896;SDS011;39629;51.400;5.494;2023-06-22T06:42:59;14.63;;;9.18;;
47896;SDS011;39629;51.400;5.494;2023-06-22T06:48:02;17.05;;;9.55;;
47896;SDS011;39629;51.400;5.494;2023-06-22T06:53:04;13.00;;;8.10;;
47896;SDS011;39629;51.400;5.494;2023-06-22T06:58:06;14.20;;;9.50;;
47896;SDS011;39629;51.400;5.494;2023-06-22T07:03:11;12.65;;;8.40;;
47896;SDS011;39629;51.400;5.494;2023-06-22T07:08:12;12.98;;;8.15;;
47896;SDS011;39629;51.400;5.494;2023-06-22T07:13:14;11.73;;;7.95;;
47896;SDS011;39629;51.400;5.494;2023-06-22T07:18:17;14.25;;;8.77;;
47896;SDS011;39629;51.400;5.494;2023-06-22T07:23:18;13.82;;;8.98;;
47896;SDS011;39629;51.400;5.494;2023-06-22T07:28:20;12.88;;;8.10;;
47896;SDS011;39629;51.400;5.494;2023-06-22T07:33:23;14.35;;;8.07;;
47896;SDS011;39629;51.400;5.494;2023-06-22T07:38:24;14.68;;;7.95;;
47896;SDS011;39629;51.400;5.494;2023-06-22T07:43:26;14.45;;;8.75;;
47896;SDS011;39629;51.400;5.494;2023-06-22T07:48:28;12.63;;;8.80;;
47896;SDS011;39629;51.400;5.494;2023-06-22T07:53:30;14.67;;;8.53;;
47896;SDS011;39629;51.400;5.494;2023-06-22T07:58:32;12.32;;;8.05;;
47896;SDS011;39629;51.400;5.494;2023-06-22T08:03:35;12.02;;;7.90;;
47896;SDS011;39629;51.400;5.494;2023-06-22T08:08:37;14.35;;;8.13;;
47896;SDS011;39629;51.400;5.494;2023-06-22T08:13:38;15.57;;;8.88;;
47896;SDS011;39629;51.400;5.494;2023-06-22T08:18:41;12.68;;;8.15;;
47896;SDS011;39629;51.400;5.494;2023-06-22T08:23:43;14.27;;;8.53;;
47896;SDS011;39629;51.400;5.494;2023-06-22T08:28:44;11.82;;;8.40;;
47896;SDS011;39629;51.400;5.494;2023-06-22T08:33:47;12.60;;;8.25;;
47896;SDS011;39629;51.400;5.494;2023-06-22T08:38:48;12.50;;;8.53;;
47896;SDS011;39629;51.400;5.494;2023-06-22T08:43:51;12.45;;;8.15;;
47896;SDS011;39629;51.400;5.494;2023-06-22T08:48:54;13.40;;;8.07;;
47896;SDS011;39629;51.400;5.494;2023-06-22T08:53:55;13.45;;;8.13;;
47896;SDS011;39629;51.400;5.494;2023-06-22T08:58:57;11.90;;;7.50;;
47896;SDS011;39629;51.400;5.494;2023-06-22T09:04:00;11.93;;;7.45;;
47896;SDS011;39629;51.400;5.494;2023-06-22T09:09:01;11.73;;;7.50;;
47896;SDS011;39629;51.400;5.494;2023-06-22T09:14:03;13.20;;;8.13;;
47896;SDS011;39629;51.400;5.494;2023-06-22T09:19:06;12.60;;;6.85;;
47896;SDS011;39629;51.400;5.494;2023-06-22T09:24:08;13.63;;;8.43;;
47896;SDS011;39629;51.400;5.494;2023-06-22T09:29:10;11.43;;;7.15;;
47896;SDS011;39629;51.400;5.494;2023-06-22T09:34:13;11.18;;;7.63;;
47896;SDS011;39629;51.400;5.494;2023-06-22T09:39:14;14.03;;;8.27;;
47896;SDS011;39629;51.400;5.494;2023-06-22T09:44:16;12.57;;;7.90;;
47896;SDS011;39629;51.400;5.494;2023-06-22T09:49:18;14.05;;;8.80;;
47896;SDS011;39629;51.400;5.494;2023-06-22T09:54:20;16.87;;;8.37;;
47896;SDS011;39629;51.400;5.494;2023-06-22T09:59:22;13.63;;;8.40;;
47896;SDS011;39629;51.400;5.494;2023-06-22T10:04:24;11.27;;;8.00;;
47896;SDS011;39629;51.400;5.494;2023-06-22T10:09:26;18.80;;;8.55;;
47896;SDS011;39629;51.400;5.494;2023-06-22T10:14:28;12.57;;;8.52;;
47896;SDS011;39629;51.400;5.494;2023-06-22T10:19:31;14.57;;;8.95;;
47896;SDS011;39629;51.400;5.494;2023-06-22T10:24:33;13.10;;;8.60;;
47896;SDS011;39629;51.400;5.494;2023-06-22T10:29:35;11.75;;;6.85;;
47896;SDS011;39629;51.400;5.494;2023-06-22T10:34:38;15.13;;;8.10;;
47896;SDS011;39629;51.400;5.494;2023-06-22T10:39:39;15.13;;;9.00;;
47896;SDS011;39629;51.400;5.494;2023-06-22T10:44:41;12.40;;;8.05;;
47896;SDS011;39629;51.400;5.494;2023-06-22T10:49:45;16.63;;;9.45;;
47896;SDS011;39629;51.400;5.494;2023-06-22T10:54:47;15.00;;;9.03;;
47896;SDS011;39629;51.400;5.494;2023-06-22T10:59:49;13.70;;;9.45;;
47896;SDS011;39629;51.400;5.494;2023-06-22T11:04:52;15.90;;;10.05;;
47896;SDS011;39629;51.400;5.494;2023-06-22T11:09:53;19.43;;;10.00;;
47896;SDS011;39629;51.400;5.494;2023-06-22T11:14:55;19.25;;;10.38;;
47896;SDS011;39629;51.400;5.494;2023-06-22T11:19:58;19.38;;;9.93;;
47896;SDS011;39629;51.400;5.494;2023-06-22T11:25:00;18.97;;;10.67;;
47896;SDS011;39629;51.400;5.494;2023-06-22T11:30:01;17.52;;;11.40;;
47896;SDS011;39629;51.400;5.494;2023-06-22T11:35:05;18.73;;;12.32;;
47896;SDS011;39629;51.400;5.494;2023-06-22T11:40:07;18.65;;;11.65;;
47896;SDS011;39629;51.400;5.494;2023-06-22T11:45:10;20.67;;;12.55;;
47896;SDS011;39629;51.400;5.494;2023-06-22T11:50:13;19.88;;;11.93;;
47896;SDS011;39629;51.400;5.494;2023-06-22T11:55:15;20.47;;;12.63;;
47896;SDS011;39629;51.400;5.494;2023-06-22T12:00:17;19.70;;;12.40;;
47896;SDS011;39629;51.400;5.494;2023-06-22T12:05:22;16.77;;;11.13;;
47896;SDS011;39629;51.400;5.494;2023-06-22T12:10:25;21.23;;;12.52;;
47896;SDS011;39629;51.400;5.494;2023-06-22T12:15:28;19.70;;;12.13;;
47896;SDS011;39629;51.400;5.494;2023-06-22T12:20:31;18.08;;;11.77;;
47896;SDS011;39629;51.400;5.494;2023-06-22T12:25:32;17.55;;;11.48;;
47896;SDS011;39629;51.400;5.494;2023-06-22T12:30:34;17.98;;;11.82;;
47896;SDS011;39629;51.400;5.494;2023-06-22T12:35:37;15.85;;;10.20;;
47896;SDS011;39629;51.400;5.494;2023-06-22T12:40:46;16.92;;;11.98;;
47896;SDS011;39629;51.400;5.494;2023-06-22T12:45:49;17.08;;;11.27;;
47896;SDS011;39629;51.400;5.494;2023-06-22T12:50:51;17.40;;;11.93;;
47896;SDS011;39629;51.400;5.494;2023-06-22T12:55:54;19.15;;;12.63;;
47896;SDS011;39629;51.400;5.494;2023-06-22T13:00:55;20.02;;;12.60;;
47896;SDS011;39629;51.400;5.494;2023-06-22T13:05:57;15.30;;;10.52;;
47896;SDS011;39629;51.400;5.494;2023-06-22T13:11:00;15.27;;;10.68;;
47896;SDS011;39629;51.400;5.494;2023-06-22T13:16:01;19.92;;;11.38;;
47896;SDS011;39629;51.400;5.494;2023-06-22T13:21:03;14.70;;;9.60;;
47896;SDS011;39629;51.400;5.494;2023-06-22T13:26:07;16.25;;;10.38;;
47896;SDS011;39629;51.400;5.494;2023-06-22T13:31:08;14.95;;;10.27;;
47896;SDS011;39629;51.400;5.494;2023-06-22T13:36:10;15.43;;;10.07;;
47896;SDS011;39629;51.400;5.494;2023-06-22T13:41:13;15.73;;;9.30;;
47896;SDS011;39629;51.400;5.494;2023-06-22T13:46:15;15.80;;;9.40;;
47896;SDS011;39629;51.400;5.494;2023-06-22T13:51:17;13.02;;;9.15;;
47896;SDS011;39629;51.400;5.494;2023-06-22T13:56:19;13.48;;;9.02;;
47896;SDS011;39629;51.400;5.494;2023-06-22T14:01:21;13.02;;;8.98;;
47896;SDS011;39629;51.400;5.494;2023-06-22T14:06:23;12.95;;;8.48;;
47896;SDS011;39629;51.400;5.494;2023-06-22T14:11:26;12.85;;;9.05;;
47896;SDS011;39629;51.400;5.494;2023-06-22T14:16:28;12.40;;;9.18;;
47896;SDS011;39629;51.400;5.494;2023-06-22T14:21:29;15.35;;;9.65;;
47896;SDS011;39629;51.400;5.494;2023-06-22T14:26:32;11.82;;;8.45;;
47896;SDS011;39629;51.400;5.494;2023-06-22T14:31:34;14.50;;;9.30;;
47896;SDS011;39629;51.400;5.494;2023-06-22T14:36:35;14.98;;;9.25;;
47896;SDS011;39629;51.400;5.494;2023-06-22T14:41:38;13.70;;;9.02;;
47896;SDS011;39629;51.400;5.494;2023-06-22T14:46:40;14.48;;;8.95;;
47896;SDS011;39629;51.400;5.494;2023-06-22T14:51:41;15.10;;;9.60;;
47896;SDS011;39629;51.400;5.494;2023-06-22T14:56:44;15.60;;;9.70;;
47896;SDS011;39629;51.400;5.494;2023-06-22T15:01:46;13.60;;;9.82;;
47896;SDS011;39629;51.400;5.494;2023-06-22T15:06:48;16.70;;;10.13;;
47896;SDS011;39629;51.400;5.494;2023-06-22T15:11:50;16.33;;;10.55;;
47896;SDS011;39629;51.400;5.494;2023-06-22T15:16:52;16.80;;;10.50;;
47896;SDS011;39629;51.400;5.494;2023-06-22T15:21:54;17.25;;;11.32;;
47896;SDS011;39629;51.400;5.494;2023-06-22T15:26:57;16.77;;;11.27;;
47896;SDS011;39629;51.400;5.494;2023-06-22T15:31:59;16.83;;;11.37;;
47896;SDS011;39629;51.400;5.494;2023-06-22T15:37:00;14.23;;;10.43;;
47896;SDS011;39629;51.400;5.494;2023-06-22T15:42:04;17.52;;;11.13;;
47896;SDS011;39629;51.400;5.494;2023-06-22T15:47:06;17.50;;;11.13;;
47896;SDS011;39629;51.400;5.494;2023-06-22T15:52:07;17.67;;;12.35;;
47896;SDS011;39629;51.400;5.494;2023-06-22T15:57:11;17.02;;;10.88;;
47896;SDS011;39629;51.400;5.494;2023-06-22T16:02:13;15.98;;;10.55;;
47896;SDS011;39629;51.400;5.494;2023-06-22T16:07:15;17.38;;;10.90;;
47896;SDS011;39629;51.400;5.494;2023-06-22T16:12:18;18.35;;;11.75;;
47896;SDS011;39629;51.400;5.494;2023-06-22T16:17:19;16.85;;;10.63;;
47896;SDS011;39629;51.400;5.494;2023-06-22T16:22:21;19.27;;;11.90;;
47896;SDS011;39629;51.400;5.494;2023-06-22T16:27:24;16.95;;;10.77;;
47896;SDS011;39629;51.400;5.494;2023-06-22T16:32:28;16.27;;;11.20;;
47896;SDS011;39629;51.400;5.494;2023-06-22T16:37:29;17.90;;;11.10;;
47896;SDS011;39629;51.400;5.494;2023-06-22T16:42:32;19.30;;;13.48;;
47896;SDS011;39629;51.400;5.494;2023-06-22T16:47:34;17.23;;;10.97;;
47896;SDS011;39629;51.400;5.494;2023-06-22T16:52:36;17.92;;;11.43;;
47896;SDS011;39629;51.400;5.494;2023-06-22T16:57:39;18.17;;;10.93;;
47896;SDS011;39629;51.400;5.494;2023-06-22T17:02:42;19.35;;;11.90;;
47896;SDS011;39629;51.400;5.494;2023-06-22T17:07:47;17.35;;;11.70;;
47896;SDS011;39629;51.400;5.494;2023-06-22T17:12:54;18.08;;;11.50;;
47896;SDS011;39629;51.400;5.494;2023-06-22T17:17:57;18.23;;;11.23;;
47896;SDS011;39629;51.400;5.494;2023-06-22T17:22:59;19.17;;;12.70;;
47896;SDS011;39629;51.400;5.494;2023-06-22T17:28:02;21.63;;;11.85;;
47896;SDS011;39629;51.400;5.494;2023-06-22T17:33:06;20.25;;;13.20;;
47896;SDS011;39629;51.400;5.494;2023-06-22T17:38:09;20.50;;;13.20;;
47896;SDS011;39629;51.400;5.494;2023-06-22T17:43:22;22.15;;;14.63;;
47896;SDS011;39629;51.400;5.494;2023-06-22T17:48:24;22.50;;;14.70;;
47896;SDS011;39629;51.400;5.494;2023-06-22T17:53:25;20.40;;;13.30;;
47896;SDS011;39629;51.400;5.494;2023-06-22T17:58:29;20.38;;;12.73;;
47896;SDS011;39629;51.400;5.494;2023-06-22T18:03:30;21.30;;;11.25;;
47896;SDS011;39629;51.400;5.494;2023-06-22T18:08:32;17.40;;;10.70;;
47896;SDS011;39629;51.400;5.494;2023-06-22T18:13:35;17.42;;;10.27;;
47896;SDS011;39629;51.400;5.494;2023-06-22T18:18:37;14.20;;;9.23;;
47896;SDS011;39629;51.400;5.494;2023-06-22T18:23:41;16.20;;;9.95;;
47896;SDS011;39629;51.400;5.494;2023-06-22T18:28:44;16.70;;;10.38;;
47896;SDS011;39629;51.400;5.494;2023-06-22T18:33:48;15.00;;;8.80;;
47896;SDS011;39629;51.400;5.494;2023-06-22T18:38:50;14.15;;;8.77;;
47896;SDS011;39629;51.400;5.494;2023-06-22T18:43:58;14.40;;;9.20;;
47896;SDS011;39629;51.400;5.494;2023-06-22T18:49:01;15.73;;;9.70;;
47896;SDS011;39629;51.400;5.494;2023-06-22T18:54:04;16.13;;;9.27;;
47896;SDS011;39629;51.400;5.494;2023-06-22T18:59:10;13.43;;;8.68;;
47896;SDS011;39629;51.400;5.494;2023-06-22T19:04:14;16.73;;;8.85;;
47896;SDS011;39629;51.400;5.494;2023-06-22T19:09:16;14.70;;;9.45;;
47896;SDS011;39629;51.400;5.494;2023-06-22T19:14:20;15.20;;;9.88;;
47896;SDS011;39629;51.400;5.494;2023-06-22T19:19:22;14.40;;;8.75;;
47896;SDS011;39629;51.400;5.494;2023-06-22T19:24:28;13.68;;;9.10;;
47896;SDS011;39629;51.400;5.494;2023-06-22T19:29:32;14.68;;;8.75;;
47896;SDS011;39629;51.400;5.494;2023-06-22T19:34:34;14.57;;;8.90;;
47896;SDS011;39629;51.400;5.494;2023-06-22T19:39:36;17.70;;;9.52;;
47896;SDS011;39629;51.400;5.494;2023-06-22T19:44:39;14.43;;;8.60;;
47896;SDS011;39629;51.400;5.494;2023-06-22T19:49:41;14.15;;;8.55;;
47896;SDS011;39629;51.400;5.494;2023-06-22T19:54:43;12.70;;;8.82;;
47896;SDS011;39629;51.400;5.494;2023-06-22T19:59:46;13.15;;;8.25;;
47896;SDS011;39629;51.400;5.494;2023-06-22T20:04:49;15.77;;;8.75;;
47896;SDS011;39629;51.400;5.494;2023-06-22T20:10:04;12.45;;;7.72;;
47896;SDS011;39629;51.400;5.494;2023-06-22T20:15:14;13.80;;;8.25;;
47896;SDS011;39629;51.400;5.494;2023-06-22T20:20:20;13.57;;;8.40;;
47896;SDS011;39629;51.400;5.494;2023-06-22T20:25:22;15.27;;;8.27;;
47896;SDS011;39629;51.400;5.494;2023-06-22T20:30:27;13.25;;;8.30;;
47896;SDS011;39629;51.400;5.494;2023-06-22T20:35:28;15.07;;;8.88;;
47896;SDS011;39629;51.400;5.494;2023-06-22T20:40:30;13.85;;;8.20;;
47896;SDS011;39629;51.400;5.494;2023-06-22T20:45:33;13.18;;;7.55;;
47896;SDS011;39629;51.400;5.494;2023-06-22T20:50:35;14.80;;;9.00;;
47896;SDS011;39629;51.400;5.494;2023-06-22T20:55:37;13.25;;;8.38;;
47896;SDS011;39629;51.400;5.494;2023-06-22T21:00:40;14.20;;;8.27;;
47896;SDS011;39629;51.400;5.494;2023-06-22T21:05:42;15.18;;;8.40;;
47896;SDS011;39629;51.400;5.494;2023-06-22T21:10:44;12.93;;;8.13;;
47896;SDS011;39629;51.400;5.494;2023-06-22T21:15:47;16.95;;;9.63;;
47896;SDS011;39629;51.400;5.494;2023-06-22T21:20:48;16.00;;;8.15;;
47896;SDS011;39629;51.400;5.494;2023-06-22T21:25:50;13.85;;;9.20;;
47896;SDS011;39629;51.400;5.494;2023-06-22T21:30:53;16.35;;;9.07;;
47896;SDS011;39629;51.400;5.494;2023-06-22T21:35:55;15.88;;;8.82;;
47896;SDS011;39629;51.400;5.494;2023-06-22T21:40:56;13.93;;;7.63;;
47896;SDS011;39629;51.400;5.494;2023-06-22T21:45:59;13.85;;;9.40;;
47896;SDS011;39629;51.400;5.494;2023-06-22T21:51:01;13.45;;;7.28;;
47896;SDS011;39629;51.400;5.494;2023-06-22T21:56:03;12.20;;;8.05;;
47896;SDS011;39629;51.400;5.494;2023-06-22T22:01:06;13.98;;;8.32;;
47896;SDS011;39629;51.400;5.494;2023-06-22T22:06:07;17.58;;;9.75;;
47896;SDS011;39629;51.400;5.494;2023-06-22T22:11:09;12.65;;;7.10;;
47896;SDS011;39629;51.400;5.494;2023-06-22T22:16:12;13.45;;;8.93;;
47896;SDS011;39629;51.400;5.494;2023-06-22T22:21:14;12.80;;;8.13;;
47896;SDS011;39629;51.400;5.494;2023-06-22T22:26:15;16.27;;;8.50;;
47896;SDS011;39629;51.400;5.494;2023-06-22T22:31:19;12.95;;;7.18;;
47896;SDS011;39629;51.400;5.494;2023-06-22T22:36:20;9.65;;;5.53;;
47896;SDS011;39629;51.400;5.494;2023-06-22T22:41:22;10.50;;;5.75;;
47896;SDS011;39629;51.400;5.494;2023-06-22T22:46:25;9.23;;;5.75;;
47896;SDS011;39629;51.400;5.494;2023-06-22T22:51:27;12.00;;;5.85;;
47896;SDS011;39629;51.400;5.494;2023-06-22T22:56:28;9.68;;;4.97;;
47896;SDS011;39629;51.400;5.494;2023-06-22T23:01:31;6.50;;;4.20;;
47896;SDS011;39629;51.400;5.494;2023-06-22T23:06:33;8.13;;;4.60;;
47896;SDS011;39629;51.400;5.494;2023-06-22T23:11:37;6.93;;;4.00;;
47896;SDS011;39629;51.400;5.494;2023-06-22T23:16:39;5.28;;;3.17;;
47896;SDS011;39629;51.400;5.494;2023-06-22T23:21:41;5.88;;;3.75;;
47896;SDS011;39629;51.400;5.494;2023-06-22T23:26:43;7.95;;;3.45;;
47896;SDS011;39629;51.400;5.494;2023-06-22T23:31:49;7.35;;;3.50;;
47896;SDS011;39629;51.400;5.494;2023-06-22T23:36:53;6.10;;;3.22;;
47896;SDS011;39629;51.400;5.494;2023-06-22T23:41:55;5.30;;;3.15;;
47896;SDS011;39629;51.400;5.494;2023-06-22T23:46:58;6.07;;;3.20;;
47896;SDS011;39629;51.400;5.494;2023-06-22T23:52:01;5.10;;;2.72;;
47896;SDS011;39629;51.400;5.494;2023-06-22T23:57:04;6.63;;;3.17;;
